sensor_id;sensor_type;location;lat;lon;timestamp;P1;durP1;ratioP1;P2;durP2;ratioP2
70416;SDS011;57839;51.332;12.410;2023-10-09T00:00:12;950.70;;;800.75;;
70416;SDS011;57839;51.332;12.410;2023-10-09T00:02:56;1019.78;;;831.08;;
70416;SDS011;57839;51.332;12.410;2023-10-09T00:05:26;1033.45;;;818.58;;
70416;SDS011;57839;51.332;12.410;2023-10-09T00:08:20;941.80;;;796.03;;
70416;SDS011;57839;51.332;12.410;2023-10-09T00:10:59;969.75;;;790.63;;
70416;SDS011;57839;51.332;12.410;2023-10-09T00:13:42;951.95;;;777.83;;
70416;SDS011;57839;51.332;12.410;2023-10-09T00:16:16;1016.10;;;839.35;;
70416;SDS011;57839;51.332;12.410;2023-10-09T00:18:43;965.92;;;785.30;;
70416;SDS011;57839;51.332;12.410;2023-10-09T00:21:17;973.53;;;803.95;;
70416;SDS011;57839;51.332;12.410;2023-10-09T00:23:45;1126.90;;;852.67;;
70416;SDS011;57839;51.332;12.410;2023-10-09T00:26:21;1034.60;;;840.00;;
70416;SDS011;57839;51.332;12.410;2023-10-09T00:28:48;980.97;;;811.25;;
70416;SDS011;57839;51.332;12.410;2023-10-09T00:31:19;946.78;;;800.08;;
70416;SDS011;57839;51.332;12.410;2023-10-09T00:33:55;975.15;;;804.10;;
70416;SDS011;57839;51.332;12.410;2023-10-09T00:36:27;1011.30;;;837.30;;
70416;SDS011;57839;51.332;12.410;2023-10-09T00:38:55;915.60;;;773.28;;
70416;SDS011;57839;51.332;12.410;2023-10-09T00:41:24;917.55;;;789.08;;
70416;SDS011;57839;51.332;12.410;2023-10-09T00:43:50;892.65;;;771.35;;
70416;SDS011;57839;51.332;12.410;2023-10-09T00:46:18;924.95;;;783.60;;
70416;SDS011;57839;51.332;12.410;2023-10-09T00:48:45;981.13;;;838.13;;
70416;SDS011;57839;51.332;12.410;2023-10-09T00:51:15;979.60;;;788.58;;
70416;SDS011;57839;51.332;12.410;2023-10-09T00:53:44;957.78;;;775.75;;
70416;SDS011;57839;51.332;12.410;2023-10-09T00:56:15;1032.82;;;809.00;;
70416;SDS011;57839;51.332;12.410;2023-10-09T00:58:48;965.13;;;792.33;;
70416;SDS011;57839;51.332;12.410;2023-10-09T01:01:21;979.45;;;797.30;;
70416;SDS011;57839;51.332;12.410;2023-10-09T01:03:51;884.67;;;752.60;;
70416;SDS011;57839;51.332;12.410;2023-10-09T01:06:17;944.17;;;800.63;;
70416;SDS011;57839;51.332;12.410;2023-10-09T01:08:46;970.55;;;794.22;;
70416;SDS011;57839;51.332;12.410;2023-10-09T01:11:34;880.53;;;753.90;;
70416;SDS011;57839;51.332;12.410;2023-10-09T01:14:03;885.63;;;757.03;;
70416;SDS011;57839;51.332;12.410;2023-10-09T01:16:31;895.28;;;751.70;;
70416;SDS011;57839;51.332;12.410;2023-10-09T01:18:57;906.95;;;791.80;;
70416;SDS011;57839;51.332;12.410;2023-10-09T01:21:23;927.47;;;793.97;;
70416;SDS011;57839;51.332;12.410;2023-10-09T01:23:50;963.13;;;798.63;;
70416;SDS011;57839;51.332;12.410;2023-10-09T01:26:38;874.58;;;777.28;;
70416;SDS011;57839;51.332;12.410;2023-10-09T01:29:09;888.03;;;770.97;;
70416;SDS011;57839;51.332;12.410;2023-10-09T01:31:45;951.13;;;828.08;;
70416;SDS011;57839;51.332;12.410;2023-10-09T01:34:25;989.83;;;816.22;;
70416;SDS011;57839;51.332;12.410;2023-10-09T01:37:09;880.58;;;760.25;;
70416;SDS011;57839;51.332;12.410;2023-10-09T01:39:53;972.20;;;824.55;;
70416;SDS011;57839;51.332;12.410;2023-10-09T01:42:45;948.90;;;795.45;;
70416;SDS011;57839;51.332;12.410;2023-10-09T01:45:11;972.40;;;818.67;;
70416;SDS011;57839;51.332;12.410;2023-10-09T01:47:37;902.88;;;771.85;;
70416;SDS011;57839;51.332;12.410;2023-10-09T01:50:06;1033.57;;;840.70;;
70416;SDS011;57839;51.332;12.410;2023-10-09T01:52:53;970.60;;;802.88;;
70416;SDS011;57839;51.332;12.410;2023-10-09T01:55:18;970.83;;;784.47;;
70416;SDS011;57839;51.332;12.410;2023-10-09T01:58:13;1021.47;;;838.97;;
70416;SDS011;57839;51.332;12.410;2023-10-09T02:00:50;977.00;;;825.47;;
70416;SDS011;57839;51.332;12.410;2023-10-09T02:03:22;1069.68;;;832.70;;
70416;SDS011;57839;51.332;12.410;2023-10-09T02:06:02;955.63;;;785.00;;
70416;SDS011;57839;51.332;12.410;2023-10-09T02:08:51;1038.15;;;800.03;;
70416;SDS011;57839;51.332;12.410;2023-10-09T02:11:18;1029.15;;;833.72;;
70416;SDS011;57839;51.332;12.410;2023-10-09T02:14:02;1005.80;;;820.20;;
70416;SDS011;57839;51.332;12.410;2023-10-09T02:16:30;950.88;;;739.20;;
70416;SDS011;57839;51.332;12.410;2023-10-09T02:19:07;988.47;;;782.47;;
70416;SDS011;57839;51.332;12.410;2023-10-09T02:21:55;948.53;;;799.83;;
70416;SDS011;57839;51.332;12.410;2023-10-09T02:24:26;987.22;;;814.80;;
70416;SDS011;57839;51.332;12.410;2023-10-09T02:26:53;1032.30;;;830.45;;
70416;SDS011;57839;51.332;12.410;2023-10-09T02:29:19;1012.10;;;803.22;;
70416;SDS011;57839;51.332;12.410;2023-10-09T02:31:49;981.63;;;807.33;;
70416;SDS011;57839;51.332;12.410;2023-10-09T02:34:26;1036.22;;;818.15;;
70416;SDS011;57839;51.332;12.410;2023-10-09T02:36:53;945.92;;;750.20;;
70416;SDS011;57839;51.332;12.410;2023-10-09T02:39:30;988.45;;;772.70;;
70416;SDS011;57839;51.332;12.410;2023-10-09T02:42:01;984.45;;;812.28;;
70416;SDS011;57839;51.332;12.410;2023-10-09T02:44:48;957.55;;;749.25;;
70416;SDS011;57839;51.332;12.410;2023-10-09T02:47:16;1023.55;;;820.95;;
70416;SDS011;57839;51.332;12.410;2023-10-09T02:49:46;1044.75;;;853.47;;
70416;SDS011;57839;51.332;12.410;2023-10-09T02:52:13;1003.00;;;772.33;;
70416;SDS011;57839;51.332;12.410;2023-10-09T02:54:43;911.75;;;748.03;;
70416;SDS011;57839;51.332;12.410;2023-10-09T02:57:12;1002.92;;;802.28;;
70416;SDS011;57839;51.332;12.410;2023-10-09T02:59:48;910.78;;;772.78;;
70416;SDS011;57839;51.332;12.410;2023-10-09T03:02:16;964.55;;;829.60;;
70416;SDS011;57839;51.332;12.410;2023-10-09T03:04:43;1005.38;;;817.70;;
70416;SDS011;57839;51.332;12.410;2023-10-09T03:07:08;929.10;;;754.92;;
70416;SDS011;57839;51.332;12.410;2023-10-09T03:09:35;894.75;;;745.80;;
70416;SDS011;57839;51.332;12.410;2023-10-09T03:12:02;1006.60;;;823.75;;
70416;SDS011;57839;51.332;12.410;2023-10-09T03:14:32;909.15;;;784.28;;
70416;SDS011;57839;51.332;12.410;2023-10-09T03:17:06;939.40;;;823.72;;
70416;SDS011;57839;51.332;12.410;2023-10-09T03:19:38;1028.72;;;861.67;;
70416;SDS011;57839;51.332;12.410;2023-10-09T03:22:05;996.65;;;788.92;;
70416;SDS011;57839;51.332;12.410;2023-10-09T03:24:35;1040.85;;;833.60;;
70416;SDS011;57839;51.332;12.410;2023-10-09T03:27:02;947.58;;;785.35;;
70416;SDS011;57839;51.332;12.410;2023-10-09T03:29:28;964.42;;;772.15;;
70416;SDS011;57839;51.332;12.410;2023-10-09T03:31:53;1005.45;;;807.50;;
70416;SDS011;57839;51.332;12.410;2023-10-09T03:34:21;1001.25;;;797.88;;
70416;SDS011;57839;51.332;12.410;2023-10-09T03:36:47;1003.47;;;817.20;;
70416;SDS011;57839;51.332;12.410;2023-10-09T03:39:13;1047.28;;;835.33;;
70416;SDS011;57839;51.332;12.410;2023-10-09T03:44:31;1056.13;;;804.35;;
70416;SDS011;57839;51.332;12.410;2023-10-09T03:46:59;1004.30;;;824.92;;
70416;SDS011;57839;51.332;12.410;2023-10-09T03:49:24;1025.88;;;841.35;;
70416;SDS011;57839;51.332;12.410;2023-10-09T03:51:51;1044.72;;;849.83;;
70416;SDS011;57839;51.332;12.410;2023-10-09T03:54:18;1063.78;;;847.85;;
70416;SDS011;57839;51.332;12.410;2023-10-09T03:56:47;933.40;;;772.15;;
70416;SDS011;57839;51.332;12.410;2023-10-09T03:59:19;1010.80;;;814.75;;
70416;SDS011;57839;51.332;12.410;2023-10-09T04:01:45;1032.70;;;817.05;;
70416;SDS011;57839;51.332;12.410;2023-10-09T04:04:13;1083.28;;;829.90;;
70416;SDS011;57839;51.332;12.410;2023-10-09T04:06:39;1059.63;;;854.28;;
70416;SDS011;57839;51.332;12.410;2023-10-09T04:09:11;1080.18;;;834.03;;
70416;SDS011;57839;51.332;12.410;2023-10-09T04:11:46;1055.80;;;822.85;;
70416;SDS011;57839;51.332;12.410;2023-10-09T04:14:15;1081.60;;;834.53;;
70416;SDS011;57839;51.332;12.410;2023-10-09T04:16:57;961.72;;;784.45;;
70416;SDS011;57839;51.332;12.410;2023-10-09T04:19:49;1088.65;;;865.92;;
70416;SDS011;57839;51.332;12.410;2023-10-09T04:22:38;1040.38;;;843.55;;
70416;SDS011;57839;51.332;12.410;2023-10-09T04:25:07;1122.47;;;860.22;;
70416;SDS011;57839;51.332;12.410;2023-10-09T04:27:39;1084.25;;;864.55;;
70416;SDS011;57839;51.332;12.410;2023-10-09T04:30:06;1076.72;;;813.83;;
70416;SDS011;57839;51.332;12.410;2023-10-09T04:32:32;1054.68;;;787.00;;
70416;SDS011;57839;51.332;12.410;2023-10-09T04:34:59;942.80;;;796.28;;
70416;SDS011;57839;51.332;12.410;2023-10-09T04:37:44;984.97;;;761.58;;
70416;SDS011;57839;51.332;12.410;2023-10-09T04:40:17;1082.18;;;829.67;;
70416;SDS011;57839;51.332;12.410;2023-10-09T04:43:02;964.55;;;767.28;;
70416;SDS011;57839;51.332;12.410;2023-10-09T04:45:35;1070.95;;;854.90;;
70416;SDS011;57839;51.332;12.410;2023-10-09T04:48:10;1006.92;;;810.03;;
70416;SDS011;57839;51.332;12.410;2023-10-09T04:50:36;1035.55;;;840.35;;
70416;SDS011;57839;51.332;12.410;2023-10-09T04:53:14;951.92;;;740.72;;
70416;SDS011;57839;51.332;12.410;2023-10-09T04:55:42;1001.15;;;837.80;;
70416;SDS011;57839;51.332;12.410;2023-10-09T04:58:21;1042.80;;;774.03;;
70416;SDS011;57839;51.332;12.410;2023-10-09T05:00:51;1025.05;;;797.13;;
70416;SDS011;57839;51.332;12.410;2023-10-09T05:03:23;1025.63;;;808.55;;
70416;SDS011;57839;51.332;12.410;2023-10-09T05:06:10;1077.85;;;831.70;;
70416;SDS011;57839;51.332;12.410;2023-10-09T05:08:54;1024.90;;;792.53;;
70416;SDS011;57839;51.332;12.410;2023-10-09T05:11:22;1097.43;;;822.10;;
70416;SDS011;57839;51.332;12.410;2023-10-09T05:14:19;961.22;;;719.38;;
70416;SDS011;57839;51.332;12.410;2023-10-09T05:16:52;1040.80;;;806.58;;
70416;SDS011;57839;51.332;12.410;2023-10-09T05:19:26;951.63;;;795.00;;
70416;SDS011;57839;51.332;12.410;2023-10-09T05:22:10;973.33;;;753.03;;
70416;SDS011;57839;51.332;12.410;2023-10-09T05:24:54;964.22;;;772.83;;
70416;SDS011;57839;51.332;12.410;2023-10-09T05:27:20;1074.40;;;789.15;;
70416;SDS011;57839;51.332;12.410;2023-10-09T05:30:05;1026.43;;;763.20;;
70416;SDS011;57839;51.332;12.410;2023-10-09T05:32:50;1028.78;;;785.38;;
70416;SDS011;57839;51.332;12.410;2023-10-09T05:35:30;1061.65;;;794.42;;
70416;SDS011;57839;51.332;12.410;2023-10-09T05:38:06;991.13;;;789.90;;
70416;SDS011;57839;51.332;12.410;2023-10-09T05:40:40;920.72;;;740.90;;
70416;SDS011;57839;51.332;12.410;2023-10-09T05:43:09;1065.93;;;853.78;;
70416;SDS011;57839;51.332;12.410;2023-10-09T05:45:55;1074.40;;;784.83;;
70416;SDS011;57839;51.332;12.410;2023-10-09T05:48:33;1091.60;;;800.58;;
70416;SDS011;57839;51.332;12.410;2023-10-09T05:51:04;1060.53;;;756.50;;
70416;SDS011;57839;51.332;12.410;2023-10-09T05:53:59;1074.45;;;782.60;;
70416;SDS011;57839;51.332;12.410;2023-10-09T05:56:33;1031.05;;;792.38;;
70416;SDS011;57839;51.332;12.410;2023-10-09T06:02:02;1073.28;;;840.92;;
70416;SDS011;57839;51.332;12.410;2023-10-09T06:04:27;978.17;;;720.08;;
70416;SDS011;57839;51.332;12.410;2023-10-09T06:07:11;1138.43;;;832.15;;
70416;SDS011;57839;51.332;12.410;2023-10-09T06:09:38;1148.40;;;867.10;;
70416;SDS011;57839;51.332;12.410;2023-10-09T06:12:20;1081.70;;;797.53;;
70416;SDS011;57839;51.332;12.410;2023-10-09T06:14:58;1098.05;;;803.80;;
70416;SDS011;57839;51.332;12.410;2023-10-09T06:17:29;1012.47;;;818.88;;
70416;SDS011;57839;51.332;12.410;2023-10-09T06:20:08;1055.38;;;788.25;;
70416;SDS011;57839;51.332;12.410;2023-10-09T06:22:54;1195.10;;;832.90;;
70416;SDS011;57839;51.332;12.410;2023-10-09T06:25:23;1051.82;;;810.55;;
70416;SDS011;57839;51.332;12.410;2023-10-09T06:27:58;1112.20;;;841.58;;
70416;SDS011;57839;51.332;12.410;2023-10-09T06:30:24;1110.25;;;747.72;;
70416;SDS011;57839;51.332;12.410;2023-10-09T06:32:50;1299.90;;;865.25;;
70416;SDS011;57839;51.332;12.410;2023-10-09T06:35:16;1060.25;;;751.00;;
70416;SDS011;57839;51.332;12.410;2023-10-09T06:37:55;1082.95;;;821.83;;
70416;SDS011;57839;51.332;12.410;2023-10-09T06:40:31;1042.80;;;707.65;;
70416;SDS011;57839;51.332;12.410;2023-10-09T06:43:04;1439.80;;;901.65;;
70416;SDS011;57839;51.332;12.410;2023-10-09T06:45:52;1168.57;;;866.13;;
70416;SDS011;57839;51.332;12.410;2023-10-09T06:48:44;1173.32;;;871.90;;
70416;SDS011;57839;51.332;12.410;2023-10-09T06:51:21;1154.07;;;789.05;;
70416;SDS011;57839;51.332;12.410;2023-10-09T06:53:51;1135.63;;;847.22;;
70416;SDS011;57839;51.332;12.410;2023-10-09T06:56:22;1076.32;;;765.28;;
70416;SDS011;57839;51.332;12.410;2023-10-09T06:58:55;1193.30;;;856.75;;
70416;SDS011;57839;51.332;12.410;2023-10-09T07:01:47;1166.55;;;829.35;;
70416;SDS011;57839;51.332;12.410;2023-10-09T07:04:32;1117.22;;;805.58;;
70416;SDS011;57839;51.332;12.410;2023-10-09T07:06:58;1017.03;;;787.28;;
70416;SDS011;57839;51.332;12.410;2023-10-09T07:09:24;1075.70;;;791.33;;
70416;SDS011;57839;51.332;12.410;2023-10-09T07:12:07;1037.60;;;864.60;;
70416;SDS011;57839;51.332;12.410;2023-10-09T07:15:01;1017.00;;;777.40;;
70416;SDS011;57839;51.332;12.410;2023-10-09T07:17:46;962.97;;;791.58;;
70416;SDS011;57839;51.332;12.410;2023-10-09T07:20:12;964.67;;;799.92;;
70416;SDS011;57839;51.332;12.410;2023-10-09T07:23:01;1037.60;;;795.25;;
70416;SDS011;57839;51.332;12.410;2023-10-09T07:25:40;1095.63;;;828.58;;
70416;SDS011;57839;51.332;12.410;2023-10-09T07:28:10;897.20;;;797.80;;
70416;SDS011;57839;51.332;12.410;2023-10-09T07:31:05;909.78;;;808.67;;
70416;SDS011;57839;51.332;12.410;2023-10-09T07:33:34;973.25;;;787.70;;
70416;SDS011;57839;51.332;12.410;2023-10-09T07:36:22;1004.72;;;811.25;;
70416;SDS011;57839;51.332;12.410;2023-10-09T07:39:03;1082.03;;;834.67;;
70416;SDS011;57839;51.332;12.410;2023-10-09T07:41:39;1043.97;;;830.40;;
70416;SDS011;57839;51.332;12.410;2023-10-09T07:44:10;931.13;;;785.97;;
70416;SDS011;57839;51.332;12.410;2023-10-09T07:46:59;870.78;;;779.85;;
70416;SDS011;57839;51.332;12.410;2023-10-09T07:49:44;1016.38;;;864.95;;
70416;SDS011;57839;51.332;12.410;2023-10-09T07:52:16;843.05;;;751.10;;
70416;SDS011;57839;51.332;12.410;2023-10-09T07:54:43;1085.43;;;783.08;;
70416;SDS011;57839;51.332;12.410;2023-10-09T07:57:41;899.25;;;791.70;;
70416;SDS011;57839;51.332;12.410;2023-10-09T08:00:07;847.97;;;759.80;;
70416;SDS011;57839;51.332;12.410;2023-10-09T08:02:51;862.50;;;768.60;;
70416;SDS011;57839;51.332;12.410;2023-10-09T08:07:59;976.70;;;803.40;;
70416;SDS011;57839;51.332;12.410;2023-10-09T08:11:06;910.15;;;798.20;;
70416;SDS011;57839;51.332;12.410;2023-10-09T08:13:54;886.58;;;780.53;;
70416;SDS011;57839;51.332;12.410;2023-10-09T08:16:25;895.42;;;803.20;;
70416;SDS011;57839;51.332;12.410;2023-10-09T08:19:01;941.25;;;809.03;;
70416;SDS011;57839;51.332;12.410;2023-10-09T08:21:47;935.78;;;795.72;;
70416;SDS011;57839;51.332;12.410;2023-10-09T08:24:32;881.47;;;782.63;;
70416;SDS011;57839;51.332;12.410;2023-10-09T08:27:06;890.30;;;797.15;;
70416;SDS011;57839;51.332;12.410;2023-10-09T08:29:51;938.72;;;798.67;;
70416;SDS011;57839;51.332;12.410;2023-10-09T08:32:37;899.00;;;803.15;;
70416;SDS011;57839;51.332;12.410;2023-10-09T08:35:07;956.70;;;800.38;;
70416;SDS011;57839;51.332;12.410;2023-10-09T08:37:51;900.95;;;815.63;;
70416;SDS011;57839;51.332;12.410;2023-10-09T08:40:18;969.80;;;771.70;;
70416;SDS011;57839;51.332;12.410;2023-10-09T08:42:48;981.55;;;780.15;;
70416;SDS011;57839;51.332;12.410;2023-10-09T08:45:22;897.42;;;802.90;;
70416;SDS011;57839;51.332;12.410;2023-10-09T08:47:55;989.63;;;859.60;;
70416;SDS011;57839;51.332;12.410;2023-10-09T08:50:21;898.53;;;809.30;;
70416;SDS011;57839;51.332;12.410;2023-10-09T08:52:50;873.10;;;770.95;;
70416;SDS011;57839;51.332;12.410;2023-10-09T08:55:16;945.60;;;827.83;;
70416;SDS011;57839;51.332;12.410;2023-10-09T08:57:43;948.80;;;800.53;;
70416;SDS011;57839;51.332;12.410;2023-10-09T09:00:18;895.55;;;796.65;;
70416;SDS011;57839;51.332;12.410;2023-10-09T09:02:54;983.50;;;844.17;;
70416;SDS011;57839;51.332;12.410;2023-10-09T09:05:20;912.80;;;792.50;;
70416;SDS011;57839;51.332;12.410;2023-10-09T09:07:46;875.70;;;783.17;;
70416;SDS011;57839;51.332;12.410;2023-10-09T09:10:13;873.00;;;762.20;;
70416;SDS011;57839;51.332;12.410;2023-10-09T09:12:49;913.30;;;792.22;;
70416;SDS011;57839;51.332;12.410;2023-10-09T09:15:35;945.15;;;806.65;;
70416;SDS011;57839;51.332;12.410;2023-10-09T09:18:05;949.60;;;818.25;;
70416;SDS011;57839;51.332;12.410;2023-10-09T09:20:34;893.08;;;774.60;;
70416;SDS011;57839;51.332;12.410;2023-10-09T09:23:02;1010.92;;;840.72;;
70416;SDS011;57839;51.332;12.410;2023-10-09T09:25:39;870.50;;;781.65;;
70416;SDS011;57839;51.332;12.410;2023-10-09T09:28:24;1063.07;;;828.38;;
70416;SDS011;57839;51.332;12.410;2023-10-09T09:30:52;942.28;;;813.90;;
70416;SDS011;57839;51.332;12.410;2023-10-09T09:33:26;873.40;;;780.83;;
70416;SDS011;57839;51.332;12.410;2023-10-09T09:36:05;956.65;;;853.20;;
70416;SDS011;57839;51.332;12.410;2023-10-09T09:38:32;967.88;;;822.90;;
70416;SDS011;57839;51.332;12.410;2023-10-09T09:41:16;928.05;;;830.17;;
70416;SDS011;57839;51.332;12.410;2023-10-09T09:46:21;972.78;;;839.00;;
70416;SDS011;57839;51.332;12.410;2023-10-09T09:48:57;1054.85;;;863.78;;
70416;SDS011;57839;51.332;12.410;2023-10-09T09:51:25;975.35;;;813.65;;
70416;SDS011;57839;51.332;12.410;2023-10-09T09:53:55;936.38;;;836.92;;
70416;SDS011;57839;51.332;12.410;2023-10-09T09:56:20;894.78;;;799.10;;
70416;SDS011;57839;51.332;12.410;2023-10-09T09:58:53;840.25;;;753.45;;
70416;SDS011;57839;51.332;12.410;2023-10-09T10:01:28;922.88;;;825.42;;
70416;SDS011;57839;51.332;12.410;2023-10-09T10:04:09;922.67;;;824.85;;
70416;SDS011;57839;51.332;12.410;2023-10-09T10:06:39;929.15;;;818.90;;
70416;SDS011;57839;51.332;12.410;2023-10-09T10:09:10;961.05;;;833.47;;
70416;SDS011;57839;51.332;12.410;2023-10-09T10:11:57;834.85;;;750.83;;
70416;SDS011;57839;51.332;12.410;2023-10-09T10:14:29;893.80;;;805.70;;
70416;SDS011;57839;51.332;12.410;2023-10-09T10:17:19;900.83;;;801.45;;
70416;SDS011;57839;51.332;12.410;2023-10-09T10:22:27;955.75;;;846.10;;
70416;SDS011;57839;51.332;12.410;2023-10-09T10:24:55;820.58;;;744.05;;
70416;SDS011;57839;51.332;12.410;2023-10-09T10:27:25;921.90;;;821.20;;
70416;SDS011;57839;51.332;12.410;2023-10-09T10:32:58;859.10;;;772.40;;
70416;SDS011;57839;51.332;12.410;2023-10-09T10:35:42;962.42;;;857.70;;
70416;SDS011;57839;51.332;12.410;2023-10-09T10:41:15;917.35;;;821.03;;
70416;SDS011;57839;51.332;12.410;2023-10-09T10:43:45;806.97;;;731.63;;
70416;SDS011;57839;51.332;12.410;2023-10-09T10:46:15;854.00;;;769.85;;
70416;SDS011;57839;51.332;12.410;2023-10-09T10:49:05;909.75;;;813.97;;
70416;SDS011;57839;51.332;12.410;2023-10-09T10:51:37;952.33;;;849.70;;
70416;SDS011;57839;51.332;12.410;2023-10-09T10:54:04;879.83;;;791.92;;
70416;SDS011;57839;51.332;12.410;2023-10-09T10:56:48;789.78;;;718.25;;
70416;SDS011;57839;51.332;12.410;2023-10-09T10:59:15;882.17;;;795.15;;
70416;SDS011;57839;51.332;12.410;2023-10-09T11:01:52;829.53;;;746.42;;
70416;SDS011;57839;51.332;12.410;2023-10-09T11:04:27;934.03;;;837.13;;
70416;SDS011;57839;51.332;12.410;2023-10-09T11:06:53;778.10;;;705.85;;
70416;SDS011;57839;51.332;12.410;2023-10-09T11:09:58;892.00;;;801.30;;
70416;SDS011;57839;51.332;12.410;2023-10-09T11:12:26;881.15;;;791.67;;
70416;SDS011;57839;51.332;12.410;2023-10-09T11:15:04;886.60;;;796.38;;
70416;SDS011;57839;51.332;12.410;2023-10-09T11:17:31;830.80;;;751.42;;
70416;SDS011;57839;51.332;12.410;2023-10-09T11:19:58;838.35;;;760.45;;
70416;SDS011;57839;51.332;12.410;2023-10-09T11:22:44;857.80;;;777.38;;
70416;SDS011;57839;51.332;12.410;2023-10-09T11:25:30;881.13;;;794.45;;
70416;SDS011;57839;51.332;12.410;2023-10-09T11:27:56;903.33;;;816.33;;
70416;SDS011;57839;51.332;12.410;2023-10-09T11:30:30;894.97;;;806.53;;
70416;SDS011;57839;51.332;12.410;2023-10-09T11:33:04;913.80;;;824.78;;
70416;SDS011;57839;51.332;12.410;2023-10-09T11:35:30;803.85;;;730.72;;
70416;SDS011;57839;51.332;12.410;2023-10-09T11:37:59;874.67;;;789.13;;
70416;SDS011;57839;51.332;12.410;2023-10-09T11:40:29;749.65;;;684.08;;
70416;SDS011;57839;51.332;12.410;2023-10-09T11:43:12;886.40;;;801.20;;
70416;SDS011;57839;51.332;12.410;2023-10-09T11:45:39;886.17;;;800.97;;
70416;SDS011;57839;51.332;12.410;2023-10-09T11:48:17;859.45;;;780.08;;
70416;SDS011;57839;51.332;12.410;2023-10-09T11:51:03;826.15;;;746.58;;
70416;SDS011;57839;51.332;12.410;2023-10-09T11:53:39;908.85;;;819.40;;
70416;SDS011;57839;51.332;12.410;2023-10-09T11:56:08;803.95;;;731.13;;
70416;SDS011;57839;51.332;12.410;2023-10-09T11:58:39;909.95;;;818.05;;
70416;SDS011;57839;51.332;12.410;2023-10-09T12:01:12;834.30;;;756.28;;
70416;SDS011;57839;51.332;12.410;2023-10-09T12:03:48;913.28;;;821.55;;
70416;SDS011;57839;51.332;12.410;2023-10-09T12:06:19;905.88;;;818.00;;
70416;SDS011;57839;51.332;12.410;2023-10-09T12:08:47;891.25;;;802.53;;
70416;SDS011;57839;51.332;12.410;2023-10-09T12:11:14;884.17;;;799.80;;
70416;SDS011;57839;51.332;12.410;2023-10-09T12:13:48;891.45;;;798.42;;
70416;SDS011;57839;51.332;12.410;2023-10-09T12:16:14;884.55;;;798.25;;
70416;SDS011;57839;51.332;12.410;2023-10-09T12:18:43;854.35;;;774.30;;
70416;SDS011;57839;51.332;12.410;2023-10-09T12:21:18;868.60;;;780.00;;
70416;SDS011;57839;51.332;12.410;2023-10-09T12:23:44;917.78;;;818.72;;
70416;SDS011;57839;51.332;12.410;2023-10-09T12:26:12;876.08;;;787.58;;
70416;SDS011;57839;51.332;12.410;2023-10-09T12:28:42;932.83;;;837.05;;
70416;SDS011;57839;51.332;12.410;2023-10-09T12:31:15;866.25;;;778.10;;
70416;SDS011;57839;51.332;12.410;2023-10-09T12:33:45;938.90;;;844.10;;
70416;SDS011;57839;51.332;12.410;2023-10-09T12:36:12;906.92;;;815.67;;
70416;SDS011;57839;51.332;12.410;2023-10-09T12:38:45;917.30;;;825.00;;
70416;SDS011;57839;51.332;12.410;2023-10-09T12:41:15;898.38;;;806.63;;
70416;SDS011;57839;51.332;12.410;2023-10-09T12:44:00;860.58;;;774.67;;
70416;SDS011;57839;51.332;12.410;2023-10-09T12:46:27;928.20;;;832.92;;
70416;SDS011;57839;51.332;12.410;2023-10-09T12:48:53;855.60;;;774.30;;
70416;SDS011;57839;51.332;12.410;2023-10-09T12:51:23;906.17;;;814.20;;
70416;SDS011;57839;51.332;12.410;2023-10-09T12:53:55;879.47;;;793.78;;
70416;SDS011;57839;51.332;12.410;2023-10-09T12:56:23;835.92;;;755.25;;
70416;SDS011;57839;51.332;12.410;2023-10-09T12:59:00;861.63;;;781.28;;
70416;SDS011;57839;51.332;12.410;2023-10-09T13:01:27;920.10;;;822.30;;
70416;SDS011;57839;51.332;12.410;2023-10-09T13:04:00;908.88;;;817.67;;
70416;SDS011;57839;51.332;12.410;2023-10-09T13:06:26;911.17;;;823.13;;
70416;SDS011;57839;51.332;12.410;2023-10-09T13:08:53;847.08;;;763.15;;
70416;SDS011;57839;51.332;12.410;2023-10-09T13:11:21;859.88;;;776.35;;
70416;SDS011;57839;51.332;12.410;2023-10-09T13:13:47;832.33;;;743.30;;
70416;SDS011;57839;51.332;12.410;2023-10-09T13:16:19;889.33;;;798.10;;
70416;SDS011;57839;51.332;12.410;2023-10-09T13:18:57;802.05;;;725.17;;
70416;SDS011;57839;51.332;12.410;2023-10-09T13:21:27;918.05;;;822.75;;
70416;SDS011;57839;51.332;12.410;2023-10-09T13:24:00;762.80;;;694.90;;
70416;SDS011;57839;51.332;12.410;2023-10-09T13:26:27;927.05;;;826.03;;
70416;SDS011;57839;51.332;12.410;2023-10-09T13:28:56;929.67;;;831.53;;
70416;SDS011;57839;51.332;12.410;2023-10-09T13:31:22;842.17;;;758.28;;
70416;SDS011;57839;51.332;12.410;2023-10-09T13:33:52;903.08;;;809.20;;
70416;SDS011;57839;51.332;12.410;2023-10-09T13:36:24;906.05;;;815.28;;
70416;SDS011;57839;51.332;12.410;2023-10-09T13:38:57;923.58;;;831.50;;
70416;SDS011;57839;51.332;12.410;2023-10-09T13:41:27;886.13;;;794.55;;
70416;SDS011;57839;51.332;12.410;2023-10-09T13:43:54;785.08;;;716.13;;
70416;SDS011;57839;51.332;12.410;2023-10-09T13:46:22;883.10;;;794.55;;
70416;SDS011;57839;51.332;12.410;2023-10-09T13:48:49;878.60;;;791.40;;
70416;SDS011;57839;51.332;12.410;2023-10-09T13:51:17;858.13;;;776.83;;
70416;SDS011;57839;51.332;12.410;2023-10-09T13:53:45;918.42;;;824.10;;
70416;SDS011;57839;51.332;12.410;2023-10-09T13:56:12;951.08;;;850.85;;
70416;SDS011;57839;51.332;12.410;2023-10-09T13:58:48;909.33;;;816.47;;
70416;SDS011;57839;51.332;12.410;2023-10-09T14:01:18;819.50;;;740.80;;
70416;SDS011;57839;51.332;12.410;2023-10-09T14:03:54;943.75;;;815.58;;
70416;SDS011;57839;51.332;12.410;2023-10-09T14:06:20;898.08;;;806.17;;
70416;SDS011;57839;51.332;12.410;2023-10-09T14:08:58;876.03;;;781.88;;
70416;SDS011;57839;51.332;12.410;2023-10-09T14:11:34;907.88;;;812.60;;
70416;SDS011;57839;51.332;12.410;2023-10-09T14:14:05;913.97;;;817.72;;
70416;SDS011;57839;51.332;12.410;2023-10-09T14:16:38;901.97;;;808.20;;
70416;SDS011;57839;51.332;12.410;2023-10-09T14:19:08;936.78;;;840.03;;
70416;SDS011;57839;51.332;12.410;2023-10-09T14:21:38;914.88;;;819.55;;
70416;SDS011;57839;51.332;12.410;2023-10-09T14:24:05;870.60;;;788.35;;
70416;SDS011;57839;51.332;12.410;2023-10-09T14:26:43;865.67;;;782.90;;
70416;SDS011;57839;51.332;12.410;2023-10-09T14:29:10;881.13;;;794.97;;
70416;SDS011;57839;51.332;12.410;2023-10-09T14:31:42;820.33;;;740.40;;
70416;SDS011;57839;51.332;12.410;2023-10-09T14:34:14;893.10;;;803.30;;
70416;SDS011;57839;51.332;12.410;2023-10-09T14:36:40;891.88;;;800.88;;